Weather at William T. Piper Memorial Airport

Public forecast

Using degrees Fahrenheit for public forecast. Weather courtesy of forecast.io.

Closest aviation weather report (METAR) to William T. Piper Memorial Airport

Closest report is Williamsport Regional Airport, 23.5 nm (43.6 km) ENE. Retrieved 2020/09/26 04:54 UTC (43 minutes ago):

KIPT 260454Z AUTO 00000KT 10SM CLR 14/12 A3006 RMK AO2 SLP176 T01440117 402780111

Closest aviation forecast (TAF) to William T. Piper Memorial Airport

Closest forecast is Williamsport Regional Airport, 23.5 nm (43.6 km) ENE. Retrieved 2020-09-26 00:57 UTC (5 hours ago):

TAF KIPT 252354Z 2600/2624 00000KT P6SM SCT250 FM260800 00000KT P6SM OVC012 FM261000 00000KT 4SM BR OVC006 FM261600 14004KT P6SM OVC015 FM262000 14007KT P6SM BKN025